Time;durP1;ratioP1;P1;durP2;ratioP2;P2;SDS_P1;SDS_P2;PMS_P1;PMS_P2;Temp;Humidity;BMP_temperature;BMP_pressure;BME280_temperature;BME280_humidity;BME280_pressure;Samples;Min_cycle;Max_cycle;Signal;HPM_P1;HPM_P2
2023/07/05 00:02:45;;;;;;;4.28;2.78;;;14.20;99.90;;;;;;10325916;28;20403;-83
2023/07/05 00:08:06;;;;;;;3.58;2.33;;;14.00;99.90;;;;;;10341195;28;20235;-82
2023/07/05 00:13:28;;;;;;;2.78;2.22;;;13.80;99.90;;;;;;10300206;28;20207;-82
2023/07/05 00:18:49;;;;;;;5.35;2.78;;;13.70;99.90;;;;;;10370385;28;20493;-83
2023/07/05 00:24:11;;;;;;;3.90;2.17;;;13.70;99.90;;;;;;10340277;28;20227;-82
2023/07/05 00:29:32;;;;;;;5.07;2.35;;;13.80;99.90;;;;;;10343530;28;20207;-83
2023/07/05 00:34:54;;;;;;;4.13;2.00;;;13.80;99.90;;;;;;10313497;28;20207;-83
2023/07/05 00:40:15;;;;;;;2.78;1.67;;;13.80;99.90;;;;;;10345376;28;20199;-83
2023/07/05 00:45:56;;;;;;;3.35;2.28;;;13.80;99.90;;;;;;10323736;28;20225;-84
2023/07/05 00:51:23;;;;;;;2.85;2.13;;;13.70;99.90;;;;;;10334398;28;20204;-83
2023/07/05 00:56:59;;;;;;;2.13;1.73;;;13.60;99.90;;;;;;10382789;28;20425;-83
2023/07/05 01:02:21;;;;;;;6.03;2.10;;;13.50;99.90;;;;;;10339033;28;20229;-83
2023/07/05 01:07:42;;;;;;;5.68;2.08;;;13.50;99.90;;;;;;10336859;28;20293;-82
2023/07/05 01:13:29;;;;;;;2.72;2.00;;;13.50;99.90;;;;;;10363805;28;20197;-83
2023/07/05 01:18:59;;;;;;;2.80;2.00;;;13.40;99.90;;;;;;10360884;28;20221;-83
2023/07/05 01:24:50;;;;;;;3.80;2.47;;;13.30;99.90;;;;;;10356122;28;20286;-82
2023/07/05 01:30:35;;;;;;;3.75;1.90;;;13.30;99.90;;;;;;10368628;28;20480;-83
2023/07/05 01:35:57;;;;;;;6.80;2.20;;;;;;;;;;10360050;28;20234;-83
2023/07/05 01:41:19;;;;;;;3.85;1.77;;;;;;;;;;10317454;28;20218;-84
2023/07/05 01:46:46;;;;;;;3.97;1.70;;;;;;;;;;10292301;28;20205;-83
2023/07/05 01:52:27;;;;;;;7.50;2.70;;;;;;;;;;10318718;28;20404;-83
2023/07/05 01:57:51;;;;;;;3.40;1.88;;;;;;;;;;10318899;28;20392;-83
2023/07/05 02:03:15;;;;;;;4.05;2.00;;;;;;;;;;10350295;28;20222;-83
2023/07/05 02:08:37;;;;;;;5.72;2.55;;;;;;;;;;10344975;28;20291;-83
2023/07/05 02:13:58;;;;;;;3.92;2.22;;;;;;;;;;10304148;28;20202;-83
2023/07/05 02:19:20;;;;;;;3.03;2.28;;;;;;;;;;10301999;28;20206;-82
2023/07/05 02:24:41;;;;;;;3.13;2.65;;;;;;;;;;10338297;28;20232;-82
2023/07/05 02:30:05;;;;;;;2.67;2.15;;;;;;;;;;10343842;28;20272;-82
2023/07/05 02:35:26;;;;;;;4.40;1.90;;;12.80;99.90;;;;;;10330211;28;20220;-83
2023/07/05 02:40:48;;;;;;;3.65;2.30;;;12.80;99.90;;;;;;10328099;28;20452;-83
2023/07/05 02:46:10;;;;;;;3.03;1.85;;;;;;;;;;10356913;28;20522;-82
2023/07/05 02:51:32;;;;;;;3.53;2.10;;;;;;;;;;10361429;28;20213;-82
2023/07/05 02:56:53;;;;;;;4.90;3.17;;;;;;;;;;10331804;28;20576;-83
2023/07/05 03:02:15;;;;;;;3.60;2.75;;;;;;;;;;10336260;28;20237;-83
2023/07/05 03:07:37;;;;;;;2.53;2.33;;;;;;;;;;10315081;28;20376;-82
2023/07/05 03:13:00;;;;;;;2.63;2.40;;;;;;;;;;10302066;28;20278;-83
2023/07/05 03:18:21;;;;;;;3.13;2.15;;;13.00;99.90;;;;;;10332925;28;20536;-83
2023/07/05 03:23:43;;;;;;;4.70;2.65;;;12.90;99.90;;;;;;10368283;28;20226;-83
2023/07/05 03:29:05;;;;;;;5.32;2.60;;;;;;;;;;10341456;28;20494;-83
2023/07/05 03:34:27;;;;;;;4.80;2.83;;;;;;;;;;10353722;28;20385;-83
2023/07/05 03:39:52;;;;;;;3.05;2.70;;;;;;;;;;10329321;28;20444;-82
2023/07/05 03:45:14;;;;;;;4.95;2.72;;;;;;;;;;10354772;28;20232;-80
2023/07/05 03:50:36;;;;;;;3.83;2.80;;;;;;;;;;10328839;28;20230;-82
2023/07/05 03:56:02;;;;;;;4.20;2.88;;;;;;;;;;10313966;28;20211;-82
2023/07/05 04:01:27;;;;;;;4.47;2.17;;;;;;;;;;10325304;28;20518;-82
2023/07/05 04:06:49;;;;;;;3.38;2.67;;;;;;;;;;10346629;28;20243;-82
2023/07/05 04:12:11;;;;;;;3.65;2.55;;;;;;;;;;10300013;28;20226;-81
2023/07/05 04:17:32;;;;;;;3.00;2.40;;;;;;;;;;10313938;28;20403;-82
2023/07/05 04:22:54;;;;;;;3.70;2.60;;;;;;;;;;10324328;28;20243;-83
2023/07/05 04:28:15;;;;;;;2.83;2.33;;;;;;;;;;10353512;28;20200;-81
2023/07/05 04:33:37;;;;;;;6.03;3.40;;;;;;;;;;10352359;28;20203;-83
2023/07/05 04:39:00;;;;;;;6.15;2.92;;;;;;;;;;10336097;28;20199;-82
2023/07/05 04:44:21;;;;;;;6.65;2.60;;;;;;;;;;10357085;28;20230;-81
2023/07/05 04:49:45;;;;;;;4.03;2.40;;;;;;;;;;10359302;28;20509;-80
2023/07/05 04:55:06;;;;;;;4.10;2.55;;;;;;;;;;10347732;28;20241;-82
2023/07/05 05:00:28;;;;;;;4.28;2.67;;;;;;;;;;10333413;28;20195;-82
2023/07/05 05:05:54;;;;;;;3.58;2.58;;;;;;;;;;10369722;28;20508;-82
2023/07/05 05:11:16;;;;;;;5.78;2.45;;;;;;;;;;10346640;28;20491;-86
2023/07/05 05:16:38;;;;;;;5.55;2.72;;;;;;;;;;10333021;28;20226;-83
2023/07/05 05:22:00;;;;;;;6.35;2.22;;;;;;;;;;10315788;28;20234;-81
2023/07/05 05:27:21;;;;;;;3.78;2.42;;;;;;;;;;10319238;28;20201;-81
2023/07/05 05:32:43;;;;;;;2.92;2.35;;;;;;;;;;10319435;28;20491;-82
2023/07/05 05:38:05;;;;;;;5.65;2.78;;;;;;;;;;10320232;28;20199;-83
2023/07/05 05:43:27;;;;;;;2.80;2.15;;;;;;;;;;10359236;28;20223;-84
2023/07/05 05:48:48;;;;;;;3.58;2.00;;;;;;;;;;10335968;28;20204;-84
2023/07/05 05:54:09;;;;;;;4.45;2.55;;;;;;;;;;10333716;28;20275;-83
2023/07/05 05:59:31;;;;;;;2.40;1.88;;;;;;;;;;10336807;28;20298;-83
2023/07/05 06:04:52;;;;;;;6.25;2.35;;;;;;;;;;10342041;28;20240;-82
2023/07/05 06:10:14;;;;;;;2.53;1.85;;;16.10;99.90;;;;;;10318112;28;20249;-82
2023/07/05 06:15:36;;;;;;;3.35;1.70;;;16.10;99.90;;;;;;10320043;28;20227;-84
2023/07/05 06:20:57;;;;;;;6.25;1.92;;;16.10;99.90;;;;;;10321140;28;20199;-84
2023/07/05 06:26:19;;;;;;;4.90;1.80;;;16.40;99.60;;;;;;10324235;28;20236;-83
2023/07/05 06:31:41;;;;;;;3.97;1.80;;;16.60;98.80;;;;;;10289910;28;20208;-83
2023/07/05 06:37:02;;;;;;;4.68;2.20;;;16.80;97.60;;;;;;10336993;28;20205;-82
2023/07/05 06:42:23;;;;;;;2.88;1.63;;;17.20;96.00;;;;;;10329466;28;20539;-82
2023/07/05 06:47:53;;;;;;;4.25;1.92;;;18.30;95.70;;;;;;10337892;28;20256;-84
2023/07/05 06:53:15;;;;;;;3.90;1.85;;;18.30;99.90;;;;;;10335237;28;20512;-85
2023/07/05 06:58:46;;;;;;;3.30;1.67;;;18.90;58.00;;;;;;10302242;28;20245;-82
2023/07/05 07:04:07;;;;;;;6.20;1.77;;;19.40;41.70;;;;;;10311074;28;20554;-84
2023/07/05 07:09:29;;;;;;;4.10;1.25;;;19.60;34.60;;;;;;10333710;28;20309;-83
2023/07/05 07:14:50;;;;;;;3.30;1.27;;;20.20;27.60;;;;;;10341310;28;20257;-81
2023/07/05 07:20:15;;;;;;;3.10;1.30;;;20.50;23.60;;;;;;10313317;28;20212;-82
2023/07/05 07:25:36;;;;;;;2.70;1.30;;;20.90;22.80;;;;;;10350250;28;20420;-81
2023/07/05 07:30:58;;;;;;;7.45;1.83;;;21.20;99.90;;;;;;10301706;28;20320;-82
2023/07/05 07:36:22;;;;;;;3.28;2.15;;;21.70;99.90;;;;;;10350037;28;20281;-83
2023/07/05 07:41:43;;;;;;;3.45;2.35;;;21.80;99.90;;;;;;10335117;28;20208;-81
2023/07/05 07:47:06;;;;;;;3.72;2.40;;;22.00;99.90;;;;;;10331103;28;20613;-80
2023/07/05 07:52:28;;;;;;;4.20;2.28;;;21.90;99.90;;;;;;10343340;28;20205;-77
2023/07/05 07:57:49;;;;;;;7.30;2.17;;;22.10;99.90;;;;;;10324841;28;20240;-82
2023/07/05 08:03:10;;;;;;;3.53;2.15;;;22.80;99.90;;;;;;10332998;28;20399;-80
2023/07/05 08:08:37;;;;;;;3.85;1.90;;;22.40;99.90;;;;;;10345099;28;20398;-84
2023/07/05 08:13:58;;;;;;;2.03;1.50;;;22.50;99.90;;;;;;10357227;28;20210;-80
2023/07/05 08:19:20;;;;;;;4.63;1.98;;;22.90;99.90;;;;;;10332221;28;20406;-79
2023/07/05 08:24:42;;;;;;;3.58;1.50;;;22.90;99.90;;;;;;10348822;28;20227;-78
2023/07/05 08:30:05;;;;;;;3.28;1.80;;;22.70;99.90;;;;;;10359912;28;20197;-80
2023/07/05 08:35:27;;;;;;;3.05;2.00;;;22.50;99.90;;;;;;10362357;28;20381;-82
2023/07/05 08:40:55;;;;;;;4.40;1.70;;;22.80;99.90;;;;;;10361380;28;20194;-79
2023/07/05 08:46:17;;;;;;;5.90;1.65;;;23.00;99.90;;;;;;10355024;28;20273;-80
2023/07/05 08:51:41;;;;;;;3.90;1.88;;;23.40;99.90;;;;;;10331973;28;20233;-79
2023/07/05 08:57:19;;;;;;;2.28;1.50;;;23.30;99.90;;;;;;10358454;28;20210;-80
2023/07/05 09:02:41;;;;;;;4.35;2.13;;;23.00;99.90;;;;;;10370101;28;20225;-80
2023/07/05 09:08:19;;;;;;;3.72;1.80;;;23.20;99.90;;;;;;10361999;28;20284;-80
2023/07/05 09:13:42;;;;;;;4.93;2.30;;;23.40;99.90;;;;;;10346409;28;20221;-79
2023/07/05 09:19:14;;;;;;;3.65;1.90;;;24.00;99.90;;;;;;10355100;28;20516;-80
2023/07/05 09:24:39;;;;;;;3.20;1.70;;;24.40;99.90;;;;;;10354958;28;20264;-80
2023/07/05 09:30:09;;;;;;;5.68;2.33;;;24.70;99.90;;;;;;10357347;28;20198;-78
2023/07/05 09:35:35;;;;;;;4.20;2.15;;;25.60;99.90;;;;;;10327097;28;20215;-81
2023/07/05 09:41:09;;;;;;;4.35;2.58;;;26.30;99.90;;;;;;10328145;28;20218;-78
2023/07/05 09:46:33;;;;;;;4.43;2.85;;;26.30;99.90;;;;;;10339499;28;20240;-77
2023/07/05 09:51:55;;;;;;;6.10;3.10;;;;;;;;;;10353368;28;20190;-78
2023/07/05 09:57:24;;;;;;;6.20;3.03;;;26.90;99.90;;;;;;10341091;28;20388;-79
2023/07/05 10:02:48;;;;;;;4.88;2.95;;;27.00;99.90;;;;;;10321805;28;20230;-80
2023/07/05 10:08:15;;;;;;;4.35;2.83;;;;;;;;;;10321005;28;20540;-81
2023/07/05 10:13:37;;;;;;;4.90;2.97;;;27.50;1.00;;;;;;10331485;28;20212;-80
2023/07/05 10:18:58;;;;;;;7.13;4.45;;;27.90;99.90;;;;;;10338314;28;20524;-79
2023/07/05 10:24:20;;;;;;;7.88;4.30;;;28.10;99.90;;;;;;10351564;28;20426;-80
2023/07/05 10:29:42;;;;;;;6.22;3.80;;;28.50;99.90;;;;;;10354910;28;20400;-81
2023/07/05 10:35:09;;;;;;;10.73;3.88;;;;;;;;;;10351804;28;20209;-83
2023/07/05 10:40:32;;;;;;;6.78;4.35;;;28.60;18.00;;;;;;10314342;28;20225;-82
2023/07/05 10:45:53;;;;;;;4.97;2.72;;;29.00;99.90;;;;;;10324865;28;20453;-80
2023/07/05 10:51:21;;;;;;;5.63;3.80;;;29.00;99.90;;;;;;10310000;28;20270;-79
2023/07/05 10:56:44;;;;;;;4.97;3.45;;;28.80;99.90;;;;;;10326119;28;20670;-81
2023/07/05 11:02:11;;;;;;;11.73;6.35;;;29.10;99.90;;;;;;10346636;28;20241;-79
2023/07/05 11:07:33;;;;;;;8.90;5.15;;;29.10;99.90;;;;;;10326602;28;20248;-81
2023/07/05 11:12:54;;;;;;;11.82;5.85;;;29.60;99.90;;;;;;10328936;28;20230;-79
2023/07/05 11:18:18;;;;;;;7.80;5.80;;;29.50;99.90;;;;;;10344719;28;20193;-79
2023/07/05 11:23:43;;;;;;;9.15;5.82;;;29.40;99.90;;;;;;10323132;28;20495;-79
2023/07/05 11:29:26;;;;;;;9.65;5.68;;;29.30;99.90;;;;;;10335052;28;20196;-86
2023/07/05 11:34:56;;;;;;;16.45;10.75;;;29.50;99.90;;;;;;10312085;28;20284;-81
2023/07/05 11:40:57;;;;;;;8.68;7.25;;;29.00;99.90;;;;;;10343469;28;20186;-82
2023/07/05 11:46:37;;;;;;;15.90;8.63;;;29.00;99.90;;;;;;10321735;28;20237;-82
2023/07/05 11:52:03;;;;;;;8.82;6.45;;;29.00;99.90;;;;;;10315144;28;20205;-86
2023/07/05 11:57:27;;;;;;;8.50;6.85;;;28.60;99.90;;;;;;10305078;28;20236;-84
2023/07/05 12:02:50;;;;;;;11.93;8.25;;;28.60;99.90;;;;;;10304455;28;20616;-82
2023/07/05 12:08:24;;;;;;;14.25;8.05;;;28.20;99.90;;;;;;10318040;28;20237;-80
2023/07/05 12:13:46;;;;;;;12.20;8.43;;;28.40;99.90;;;;;;10306079;28;20237;-80
2023/07/05 12:19:12;;;;;;;13.50;8.93;;;28.50;99.90;;;;;;10328846;28;20210;-81
2023/07/05 12:24:41;;;;;;;14.02;8.75;;;28.80;99.90;;;;;;10362295;28;20228;-80
2023/07/05 12:30:03;;;;;;;17.65;8.43;;;28.70;99.90;;;;;;10373074;28;20190;-81
2023/07/05 12:35:27;;;;;;;15.85;8.10;;;29.10;99.90;;;;;;10362551;28;20198;-79
2023/07/05 12:40:54;;;;;;;13.90;8.60;;;29.10;99.90;;;;;;10347460;28;20210;-80
2023/07/05 12:46:21;;;;;;;13.57;8.70;;;29.60;99.90;;;;;;10326105;28;20230;-83
2023/07/05 12:51:58;;;;;;;15.98;8.82;;;29.50;99.90;;;;;;10320888;28;20202;-82
2023/07/05 12:57:22;;;;;;;13.27;7.88;;;29.90;99.90;;;;;;10327490;28;20443;-81
2023/07/05 13:02:44;;;;;;;12.55;8.65;;;29.60;99.90;;;;;;10347254;28;20206;-82
2023/07/05 13:08:05;;;;;;;16.20;8.85;;;29.00;99.90;;;;;;10326234;28;20237;-82
2023/07/05 13:13:35;;;;;;;13.18;9.18;;;28.40;99.90;;;;;;10325710;28;20222;-86
2023/07/05 13:19:06;;;;;;;13.23;9.23;;;28.20;99.90;;;;;;10381728;28;20212;-82
2023/07/05 13:24:27;;;;;;;12.25;9.32;;;28.00;99.90;;;;;;10354836;28;20313;-82
2023/07/05 13:29:49;;;;;;;12.73;9.38;;;27.70;99.90;;;;;;10321831;28;20214;-81
2023/07/05 13:35:10;;;;;;;11.02;8.68;;;27.90;99.90;;;;;;10340573;28;20213;-82
2023/07/05 13:40:32;;;;;;;10.45;8.82;;;27.80;99.90;;;;;;10327877;28;20204;-79
2023/07/05 13:45:53;;;;;;;14.07;8.57;;;;;;;;;;10329752;28;20402;-81
2023/07/05 13:51:29;;;;;;;20.10;9.30;;;;;;;;;;10338573;28;20254;-81
2023/07/05 13:56:51;;;;;;;13.10;9.85;;;;;;;;;;10336111;28;20213;-81
2023/07/05 14:02:33;;;;;;;13.23;8.68;;;;;;;;;;10351516;28;20201;-81
2023/07/05 14:07:55;;;;;;;13.30;9.40;;;;;;;;;;10343195;28;20248;-81
2023/07/05 14:13:21;;;;;;;22.75;10.95;;;;;;;;;;10325590;28;20205;-81
2023/07/05 14:18:43;;;;;;;17.67;10.35;;;;;;;;;;10327754;28;20221;-81
2023/07/05 14:24:07;;;;;;;14.40;9.70;;;;;;;;;;10343899;28;20233;-81
2023/07/05 14:29:29;;;;;;;12.80;9.63;;;;;;;;;;10351339;28;20430;-80
2023/07/05 14:34:50;;;;;;;14.30;9.85;;;27.10;99.90;;;;;;10366706;28;20230;-80
2023/07/05 14:40:12;;;;;;;18.08;10.02;;;27.00;99.90;;;;;;10345140;28;20202;-81
2023/07/05 14:45:34;;;;;;;18.17;10.65;;;26.80;99.90;;;;;;10335598;28;20316;-83
2023/07/05 14:50:56;;;;;;;15.73;9.57;;;26.90;1.00;;;;;;10338949;28;20198;-81
2023/07/05 14:56:21;;;;;;;17.35;9.93;;;;;;;;;;10360065;28;20271;-83
2023/07/05 15:01:42;;;;;;;13.82;10.13;;;26.10;1.00;;;;;;10350547;28;20210;-82
2023/07/05 15:07:13;;;;;;;14.60;10.32;;;26.10;1.00;;;;;;10359414;28;20272;-82
2023/07/05 15:12:40;;;;;;;18.15;10.60;;;26.20;1.00;;;;;;10354786;28;20492;-85
2023/07/05 15:18:01;;;;;;;22.75;12.00;;;25.30;99.90;;;;;;10339699;28;20229;-86
2023/07/05 15:23:24;;;;;;;14.68;10.88;;;;;;;;;;10322074;28;20404;-83
2023/07/05 15:34:57;;;;;;;24.70;14.70;;;22.00;99.90;;;;;;10351021;28;20236;-83
2023/07/05 15:40:18;;;;;;;15.55;11.65;;;21.50;99.90;;;;;;10339147;28;20199;-83
2023/07/05 15:45:40;;;;;;;17.92;13.50;;;21.30;99.90;;;;;;10329956;28;20222;-85
2023/07/05 15:51:02;;;;;;;17.42;11.95;;;21.20;99.90;;;;;;10329596;28;20223;-81
2023/07/05 15:56:23;;;;;;;16.38;11.70;;;21.00;99.90;;;;;;10325255;28;20212;-81
2023/07/05 16:01:46;;;;;;;19.98;12.70;;;20.80;99.90;;;;;;10340395;28;20198;-82
2023/07/05 16:07:08;;;;;;;19.50;13.25;;;20.80;99.90;;;;;;10320789;28;20564;-82
2023/07/05 16:12:29;;;;;;;16.88;12.48;;;20.70;99.90;;;;;;10348524;28;20237;-83
2023/07/05 16:17:51;;;;;;;18.60;13.70;;;20.80;99.90;;;;;;10324868;28;20519;-84
2023/07/05 16:23:12;;;;;;;16.95;12.07;;;20.80;99.90;;;;;;10326021;28;20201;-83
2023/07/05 16:28:33;;;;;;;18.52;13.20;;;20.80;99.90;;;;;;10322032;28;20201;-85
2023/07/05 16:33:54;;;;;;;20.30;13.00;;;20.80;99.90;;;;;;10353194;28;20248;-82
2023/07/05 16:39:16;;;;;;;19.67;13.45;;;20.60;99.90;;;;;;10353152;28;20228;-81
2023/07/05 16:44:39;;;;;;;14.98;11.07;;;20.50;99.90;;;;;;10347844;28;20237;-84
2023/07/05 16:50:00;;;;;;;15.55;10.70;;;20.00;99.90;;;;;;10316740;28;20493;-83
2023/07/05 16:55:21;;;;;;;19.80;11.20;;;19.80;99.90;;;;;;10351654;28;20205;-83
2023/07/05 17:00:43;;;;;;;17.50;11.70;;;19.70;99.90;;;;;;10347854;28;20241;-81
2023/07/05 17:06:08;;;;;;;23.15;15.30;;;19.80;99.90;;;;;;10345376;28;20229;-82
2023/07/05 17:11:29;;;;;;;19.20;11.98;;;19.80;99.90;;;;;;10357812;28;20198;-81
2023/07/05 17:16:51;;;;;;;17.15;11.52;;;19.70;99.90;;;;;;10355444;28;20229;-84
2023/07/05 17:22:12;;;;;;;20.23;14.77;;;19.60;99.90;;;;;;10306549;28;20282;-80
2023/07/05 17:27:33;;;;;;;21.80;13.98;;;19.60;99.90;;;;;;10366286;28;20296;-84
2023/07/05 17:32:56;;;;;;;14.40;10.65;;;19.50;99.90;;;;;;10353376;28;20225;-80
2023/07/05 17:38:17;;;;;;;14.88;10.98;;;19.30;99.90;;;;;;10346013;28;20197;-81
2023/07/05 17:43:38;;;;;;;15.13;9.63;;;19.20;99.90;;;;;;10330254;28;20581;-82
2023/07/05 17:49:03;;;;;;;15.23;9.77;;;19.10;99.90;;;;;;10337245;28;20206;-80
2023/07/05 17:54:24;;;;;;;13.40;9.70;;;19.00;99.90;;;;;;10336358;28;20206;-82
2023/07/05 17:59:46;;;;;;;13.75;9.25;;;18.90;99.90;;;;;;10319006;28;20237;-82
2023/07/05 18:05:07;;;;;;;12.40;9.63;;;18.90;99.90;;;;;;10321854;28;20460;-82
2023/07/05 18:10:29;;;;;;;12.95;8.25;;;18.90;99.90;;;;;;10356682;28;20326;-81
2023/07/05 18:15:58;;;;;;;12.35;8.10;;;18.80;99.90;;;;;;10342223;28;20229;-82
2023/07/05 18:21:25;;;;;;;10.02;6.93;;;18.90;99.90;;;;;;10353654;28;20199;-82
2023/07/05 18:26:52;;;;;;;9.70;6.97;;;18.80;99.90;;;;;;10355795;28;20236;-82
2023/07/05 18:32:13;;;;;;;13.23;7.97;;;18.80;99.90;;;;;;10343840;28;20224;-82
2023/07/05 18:37:34;;;;;;;11.48;7.65;;;18.80;99.90;;;;;;10356801;28;20201;-81
2023/07/05 18:42:55;;;;;;;9.65;7.70;;;18.80;99.90;;;;;;10353967;28;20256;-83
2023/07/05 18:48:18;;;;;;;9.68;7.72;;;18.80;99.90;;;;;;10318400;28;20229;-82
2023/07/05 18:53:39;;;;;;;11.18;8.43;;;18.80;99.90;;;;;;10329117;28;20507;-82
2023/07/05 18:59:01;;;;;;;10.32;8.15;;;18.90;99.90;;;;;;10324491;28;20504;-81
2023/07/05 19:04:22;;;;;;;11.52;8.77;;;18.90;99.90;;;;;;10356650;28;20213;-82
2023/07/05 19:09:44;;;;;;;10.07;7.38;;;19.00;99.90;;;;;;10342520;28;20284;-84
2023/07/05 19:15:05;;;;;;;13.38;8.88;;;18.90;99.90;;;;;;10369934;28;20194;-80
2023/07/05 19:20:27;;;;;;;14.80;8.93;;;18.90;99.90;;;;;;10328650;28;20229;-82
2023/07/05 19:25:49;;;;;;;16.85;12.63;;;18.90;99.90;;;;;;10315174;28;20225;-84
2023/07/05 19:31:37;;;;;;;19.40;11.77;;;18.80;99.90;;;;;;10347971;28;20383;-82
2023/07/05 19:36:59;;;;;;;19.05;12.07;;;18.80;99.90;;;;;;10323152;28;20206;-81
2023/07/05 19:42:20;;;;;;;20.98;10.13;;;18.80;99.90;;;;;;10328556;28;20209;-84
2023/07/05 19:47:41;;;;;;;20.27;11.43;;;18.80;99.90;;;;;;10334510;28;20221;-81
2023/07/05 19:53:03;;;;;;;22.02;11.45;;;18.80;99.90;;;;;;10338461;28;20201;-84
2023/07/05 19:58:25;;;;;;;16.75;11.10;;;18.80;99.90;;;;;;10354852;28;20228;-81
2023/07/05 20:03:46;;;;;;;14.57;9.73;;;18.70;99.90;;;;;;10325601;28;20224;-82
2023/07/05 20:09:08;;;;;;;19.67;9.82;;;18.70;99.90;;;;;;10342375;28;20242;-80
2023/07/05 20:14:30;;;;;;;12.68;8.43;;;18.60;99.90;;;;;;10340002;28;20265;-82
2023/07/05 20:19:51;;;;;;;12.98;7.80;;;18.60;99.90;;;;;;10340116;28;20194;-81
2023/07/05 20:25:12;;;;;;;29.95;23.48;;;18.60;99.90;;;;;;10339138;28;20434;-81
2023/07/05 20:30:34;;;;;;;13.88;10.38;;;18.60;99.90;;;;;;10353814;28;20185;-83
2023/07/05 20:36:06;;;;;;;10.13;7.15;;;18.50;99.90;;;;;;10354669;28;20413;-84
2023/07/05 20:41:26;;;;;;;9.18;6.10;;;18.50;99.90;;;;;;10338433;28;20209;-84
2023/07/05 20:46:48;;;;;;;6.78;6.00;;;18.50;99.90;;;;;;10354311;28;20248;-84
2023/07/05 20:52:09;;;;;;;7.50;5.47;;;18.50;99.90;;;;;;10354374;28;20197;-84
2023/07/05 20:57:32;;;;;;;8.75;5.72;;;18.40;99.90;;;;;;10317497;28;20226;-84
2023/07/05 21:02:54;;;;;;;7.88;6.32;;;18.40;99.90;;;;;;10327116;28;20214;-81
2023/07/05 21:08:15;;;;;;;7.57;5.93;;;18.50;99.90;;;;;;10316783;28;20427;-81
2023/07/05 21:13:38;;;;;;;7.18;5.90;;;18.40;99.90;;;;;;10339207;28;20449;-81
2023/07/05 21:18:59;;;;;;;7.82;5.60;;;18.30;99.90;;;;;;10338722;28;20238;-80
2023/07/05 21:24:21;;;;;;;8.52;6.90;;;18.30;99.90;;;;;;10351911;28;20218;-86
2023/07/05 21:29:42;;;;;;;8.02;6.25;;;18.20;99.90;;;;;;10343675;28;20197;-83
2023/07/05 21:35:05;;;;;;;6.75;6.05;;;18.20;99.90;;;;;;10373957;28;20194;-81
2023/07/05 21:40:27;;;;;;;9.98;7.28;;;18.20;99.90;;;;;;10332549;28;20528;-80
2023/07/05 21:45:48;;;;;;;11.82;7.63;;;18.10;99.90;;;;;;10347470;28;20296;-83
2023/07/05 21:51:10;;;;;;;8.13;6.28;;;18.00;99.90;;;;;;10359149;28;20198;-84
2023/07/05 21:56:32;;;;;;;9.60;6.65;;;18.00;99.90;;;;;;10302023;28;20516;-84
2023/07/05 22:01:53;;;;;;;12.95;6.57;;;17.90;99.90;;;;;;10291758;28;20501;-81
2023/07/05 22:07:15;;;;;;;8.55;5.70;;;17.90;99.90;;;;;;10321574;28;20238;-80
2023/07/05 22:12:40;;;;;;;8.27;6.32;;;17.90;99.90;;;;;;10318118;28;20206;-81
2023/07/05 22:18:02;;;;;;;9.40;6.13;;;17.90;99.90;;;;;;10304014;28;20213;-82
2023/07/05 22:23:24;;;;;;;8.07;6.13;;;17.90;99.90;;;;;;10303683;28;20207;-79
2023/07/05 22:28:45;;;;;;;8.75;7.30;;;18.00;99.90;;;;;;10359171;28;20297;-81
2023/07/05 22:34:06;;;;;;;9.18;7.50;;;18.00;99.90;;;;;;10343878;28;20194;-82
2023/07/05 22:39:28;;;;;;;8.90;7.03;;;18.00;99.90;;;;;;10302641;28;20216;-81
2023/07/05 22:44:50;;;;;;;9.50;6.70;;;17.90;99.90;;;;;;10322403;28;20232;-81
2023/07/05 22:50:13;;;;;;;9.13;6.40;;;17.90;99.90;;;;;;10356626;28;20197;-82
2023/07/05 22:55:34;;;;;;;11.48;8.23;;;17.90;99.90;;;;;;10302737;28;20229;-82
2023/07/05 23:01:02;;;;;;;9.75;7.28;;;17.90;99.90;;;;;;10316188;28;20217;-81
2023/07/05 23:06:23;;;;;;;8.30;6.35;;;17.80;99.90;;;;;;10291793;28;20233;-81
2023/07/05 23:11:45;;;;;;;5.80;5.15;;;17.80;99.90;;;;;;10302660;28;20659;-84
2023/07/05 23:17:06;;;;;;;6.97;6.28;;;17.80;99.90;;;;;;10301770;28;20286;-80
2023/07/05 23:22:28;;;;;;;6.18;5.20;;;17.70;99.90;;;;;;10328957;28;20494;-82
2023/07/05 23:27:49;;;;;;;9.38;5.85;;;17.70;99.90;;;;;;10301134;28;20230;-81
2023/07/05 23:33:11;;;;;;;6.75;5.47;;;17.60;99.90;;;;;;10314968;28;20206;-82
2023/07/05 23:38:32;;;;;;;7.85;4.78;;;17.60;99.90;;;;;;10345716;28;20213;-81
2023/07/05 23:43:54;;;;;;;5.38;4.75;;;17.60;99.90;;;;;;10354734;28;20212;-82
2023/07/05 23:49:15;;;;;;;9.02;5.88;;;17.40;99.90;;;;;;10354513;28;20419;-80
2023/07/05 23:54:36;;;;;;;8.43;5.13;;;17.30;99.90;;;;;;10300666;28;20285;-81
2023/07/05 23:59:58;;;;;;;9.05;5.60;;;17.30;99.90;;;;;;10328061;28;20261;-81
